Time;durP1;ratioP1;P1;durP2;ratioP2;P2;SDS_P1;SDS_P2;PMS_P1;PMS_P2;Temp;Humidity;BMP_temperature;BMP_pressure;BME280_temperature;BME280_humidity;BME280_pressure;Samples;Min_cycle;Max_cycle;Signal;HPM_P1;HPM_P2
2021/12/23 00:00:53;;;;;;;;;;;;;;;-2.70;63.09;100994.69;5049565;28;20661;-83
2021/12/23 00:03:18;;;;;;;;;;;;;;;-2.62;63.11;100992.56;5048935;28;19916;-82
2021/12/23 00:05:44;;;;;;;;;;;;;;;-2.69;62.91;101001.63;5049255;28;19975;-83
2021/12/23 00:08:09;;;;;;;;;;;;;;;-2.81;63.32;100995.72;5030699;28;19948;-82
2021/12/23 00:10:34;;;;;;;;;;;;;;;-2.88;63.30;100999.63;5029211;28;19948;-82
2021/12/23 00:13:00;;;;;;;;;;;;;;;-2.81;63.91;100990.56;5028926;28;19999;-82
2021/12/23 00:15:32;;;;;;;;;;;;;;;-2.83;63.39;100997.31;5027183;28;20388;-82
2021/12/23 00:18:05;;;;;;;;;;;;;;;-2.76;64.32;100997.78;5028614;28;20004;-82
2021/12/23 00:25:43;;;;;;;;;;;;;;;-2.91;64.70;100997.75;5040947;28;20369;-83
2021/12/23 00:28:09;;;;;;;;;;;;;;;-2.90;64.55;100994.38;5028305;28;19917;-82
2021/12/23 00:30:34;;;;;;;;;;;;;;;-2.87;64.10;100993.69;5027705;28;20012;-82
2021/12/23 00:32:59;;;;;;;;;;;;;;;-2.73;63.78;100990.22;5028099;28;19924;-82
2021/12/23 00:35:25;;;;;;;;;;;;;;;-2.65;63.98;100990.66;5028647;28;19910;-82
2021/12/23 00:37:57;;;;;;;;;;;;;;;-2.72;63.06;100991.09;5045741;28;19927;-82
2021/12/23 00:40:22;;;;;;;;;;;;;;;-2.66;63.31;100993.16;5048459;28;19956;-82
2021/12/23 00:42:48;;;;;;;;;;;;;;;-2.72;63.90;100993.69;5048164;28;19966;-82
2021/12/23 00:45:13;;;;;;;;;;;;;;;-2.89;63.26;100985.84;5046167;28;20027;-83
2021/12/23 00:47:38;;;;;;;;;;;;;;;-3.33;64.71;100991.78;5027925;28;19913;-82
2021/12/23 00:50:04;;;;;;;;;;;;;;;-3.44;65.38;100993.69;5028369;28;19952;-82
2021/12/23 00:52:34;;;;;;;;;;;;;;;-3.60;64.72;100994.44;5028156;28;19917;-82
2021/12/23 00:55:00;;;;;;;;;;;;;;;-3.64;64.40;100989.00;5028010;28;19916;-82
2021/12/23 00:57:29;;;;;;;;;;;;;;;-3.84;65.14;100991.19;5045413;28;19975;-82
2021/12/23 00:59:55;;;;;;;;;;;;;;;-3.72;64.50;100991.09;5048223;28;19916;-82
2021/12/23 01:02:28;;;;;;;;;;;;;;;-3.74;64.70;100991.78;5041308;28;19987;-82
2021/12/23 01:04:56;;;;;;;;;;;;;;;-3.62;64.47;100983.09;5028031;28;19925;-82
2021/12/23 01:07:21;;;;;;;;;;;;;;;-3.99;65.21;100991.09;5026509;28;19927;-83
2021/12/23 01:09:46;;;;;;;;;;;;;;;-3.84;65.34;100986.03;5028023;28;19935;-82
2021/12/23 01:12:14;;;;;;;;;;;;;;;-3.91;65.95;100978.69;5036725;28;19966;-82
2021/12/23 01:14:53;;;;;;;;;;;;;;;-3.75;65.71;100987.41;5032397;28;20023;-82
2021/12/23 01:19:51;;;;;;;;;;;;;;;-3.57;65.56;100975.66;5047701;28;19927;-82
2021/12/23 01:22:17;;;;;;;;;;;;;;;-3.35;64.58;100983.06;5047052;28;19921;-82
2021/12/23 01:24:42;;;;;;;;;;;;;;;-3.39;65.41;100975.91;5038711;28;19917;-82
2021/12/23 01:27:07;;;;;;;;;;;;;;;-3.37;65.32;100974.31;5027182;28;19964;-83
2021/12/23 01:29:33;;;;;;;;;;;;;;;-3.25;64.77;100969.00;5026411;28;20371;-82
2021/12/23 01:32:02;;;;;;;;;;;;;;;-3.19;64.11;100966.81;5027502;28;19917;-82
2021/12/23 01:34:28;;;;;;;;;;;;;;;-3.13;64.76;100967.19;5027335;28;20419;-82
2021/12/23 01:36:53;;;;;;;;;;;;;;;-3.00;64.17;100960.16;5045955;28;20003;-82
2021/12/23 01:39:18;;;;;;;;;;;;;;;-3.25;64.56;100964.72;5047370;28;19921;-83
2021/12/23 01:41:44;;;;;;;;;;;;;;;-3.24;63.70;100955.31;5047731;28;19920;-82
2021/12/23 01:44:09;;;;;;;;;;;;;;;-3.25;64.32;100954.41;5047603;28;19917;-83
2021/12/23 01:46:34;;;;;;;;;;;;;;;-3.25;64.23;100953.53;5027871;28;20406;-83
2021/12/23 01:49:00;;;;;;;;;;;;;;;-3.25;63.90;100954.41;5035217;28;20329;-82
2021/12/23 01:51:25;;;;;;;;;;;;;;;-3.30;63.10;100955.84;5047434;28;19917;-83
2021/12/23 01:53:50;;;;;;;;;;;;;;;-3.30;63.72;100958.41;5036663;28;19917;-82
2021/12/23 01:56:17;;;;;;;;;;;;;;;-3.39;63.40;100956.97;5042832;28;19921;-82
2021/12/23 01:58:43;;;;;;;;;;;;;;;-3.30;63.38;100953.25;5047081;28;20441;-83
2021/12/23 02:01:09;;;;;;;;;;;;;;;-3.27;63.60;100953.44;5045527;28;19920;-82
2021/12/23 02:03:34;;;;;;;;;;;;;;;-3.14;63.19;100954.19;5046656;28;19974;-83
2021/12/23 02:06:00;;;;;;;;;;;;;;;-3.29;63.76;100954.13;5028977;28;19917;-82
2021/12/23 02:08:25;;;;;;;;;;;;;;;-3.48;64.52;100953.00;5027758;28;19960;-82
2021/12/23 02:10:52;;;;;;;;;;;;;;;-3.39;64.31;100949.22;5027203;28;20446;-82
2021/12/23 02:13:17;;;;;;;;;;;;;;;-3.35;64.53;100946.00;5026994;28;19967;-82
2021/12/23 02:15:43;;;;;;;;;;;;;;;-3.31;64.43;100953.16;5040626;28;19921;-82
2021/12/23 02:18:08;;;;;;;;;;;;;;;-3.29;64.42;100946.38;5046481;28;19923;-82
2021/12/23 02:20:34;;;;;;;;;;;;;;;-3.22;63.92;100948.56;5047044;28;19963;-82
2021/12/23 02:23:00;;;;;;;;;;;;;;;-3.26;64.23;100946.56;5047139;28;19923;-83
2021/12/23 02:25:25;;;;;;;;;;;;;;;-3.20;63.61;100944.38;5031901;28;19923;-83
2021/12/23 02:27:52;;;;;;;;;;;;;;;-3.38;63.50;100946.75;5027084;28;19967;-82
2021/12/23 02:30:22;;;;;;;;;;;;;;;-3.36;63.61;100949.41;5027143;28;19917;-83
2021/12/23 02:32:48;;;;;;;;;;;;;;;-3.35;63.93;100944.34;5028420;28;20310;-83
2021/12/23 02:35:14;;;;;;;;;;;;;;;-3.36;63.22;100949.41;5034498;28;19920;-83
2021/12/23 02:37:40;;;;;;;;;;;;;;;-3.42;63.50;100955.09;5024470;28;20357;-83
2021/12/23 02:40:06;;;;;;;;;;;;;;;-3.39;63.69;100954.38;5030308;28;19917;-82
2021/12/23 02:42:31;;;;;;;;;;;;;;;-3.44;64.15;100959.28;5029950;28;20415;-82
2021/12/23 02:44:58;;;;;;;;;;;;;;;-3.40;63.54;100955.19;5030924;28;20342;-82
2021/12/23 02:47:23;;;;;;;;;;;;;;;-3.44;63.98;100959.28;5029929;28;19918;-82
2021/12/23 02:49:49;;;;;;;;;;;;;;;-3.35;63.80;100961.50;5028942;28;19974;-83
2021/12/23 02:52:15;;;;;;;;;;;;;;;-3.32;62.76;100946.19;5030757;28;20292;-83
2021/12/23 02:54:41;;;;;;;;;;;;;;;-3.50;62.83;100951.16;5029518;28;19936;-82
2021/12/23 02:57:06;;;;;;;;;;;;;;;-3.63;63.26;100952.06;5030070;28;19944;-83
2021/12/23 02:59:32;;;;;;;;;;;;;;;-3.72;63.08;100934.34;5030120;28;19944;-82
2021/12/23 03:01:57;;;;;;;;;;;;;;;-3.72;63.29;100947.25;5030611;28;19917;-82
2021/12/23 03:04:22;;;;;;;;;;;;;;;-3.72;63.89;100949.81;5033035;28;19923;-82
2021/12/23 03:06:48;;;;;;;;;;;;;;;-3.74;63.53;100947.94;5029848;28;19921;-82
2021/12/23 03:09:13;;;;;;;;;;;;;;;-3.58;62.84;100955.84;5029526;28;19917;-83
2021/12/23 03:11:40;;;;;;;;;;;;;;;-3.61;62.99;100953.06;5030190;28;19917;-82
2021/12/23 03:14:06;;;;;;;;;;;;;;;-3.68;63.39;100954.34;5029643;28;20334;-82
2021/12/23 03:16:34;;;;;;;;;;;;;;;-3.70;63.47;100961.13;5033642;28;20023;-82
2021/12/23 03:19:00;;;;;;;;;;;;;;;-3.70;62.59;100958.53;5050046;28;19924;-82
2021/12/23 03:21:25;;;;;;;;;;;;;;;-3.75;63.45;100961.59;5049567;28;19917;-83
2021/12/23 03:23:51;;;;;;;;;;;;;;;-3.73;62.98;100962.63;5048264;28;19968;-83
2021/12/23 03:26:17;;;;;;;;;;;;;;;-3.75;63.02;100961.59;5049626;28;19935;-82
2021/12/23 03:28:42;;;;;;;;;;;;;;;-3.68;62.73;100962.09;5049491;28;19916;-83
2021/12/23 03:31:07;;;;;;;;;;;;;;;-3.73;63.17;100963.50;5049545;28;19924;-82
2021/12/23 03:33:33;;;;;;;;;;;;;;;-3.72;63.26;100966.97;5047075;28;19916;-83
2021/12/23 03:35:58;;;;;;;;;;;;;;;-3.92;63.17;100973.44;5029889;28;19921;-83
2021/12/23 03:38:24;;;;;;;;;;;;;;;-3.91;63.60;100978.69;5029849;28;19923;-82
2021/12/23 03:40:49;;;;;;;;;;;;;;;-3.88;63.25;100971.16;5029610;28;20054;-82
2021/12/23 03:43:16;;;;;;;;;;;;;;;-3.89;63.38;100971.06;5031991;28;20015;-82
2021/12/23 03:45:44;;;;;;;;;;;;;;;-3.78;63.54;100968.38;5049182;28;19921;-81
2021/12/23 03:48:13;;;;;;;;;;;;;;;-3.73;62.97;100967.78;5039463;28;20004;-82
2021/12/23 03:50:38;;;;;;;;;;;;;;;-3.81;63.26;100964.72;5027466;28;19939;-83
2021/12/23 03:53:04;;;;;;;;;;;;;;;-3.87;63.49;100972.06;5029423;28;20395;-83
2021/12/23 03:55:29;;;;;;;;;;;;;;;-3.85;63.54;100980.78;5043839;28;19917;-83
2021/12/23 03:57:55;;;;;;;;;;;;;;;-3.83;63.91;100982.66;5035369;28;20455;-82
2021/12/23 04:00:22;;;;;;;;;;;;;;;-3.92;64.27;100992.41;5046752;28;19936;-83
2021/12/23 04:02:48;;;;;;;;;;;;;;;-4.07;64.29;100987.13;5031096;28;19921;-83
2021/12/23 04:05:13;;;;;;;;;;;;;;;-3.94;64.63;100986.22;5033997;28;19920;-81
2021/12/23 04:07:38;;;;;;;;;;;;;;;-3.95;64.06;100989.63;5048197;28;19920;-84
2021/12/23 04:10:04;;;;;;;;;;;;;;;-3.99;63.66;100995.38;5049032;28;20105;-82
2021/12/23 04:12:30;;;;;;;;;;;;;;;-4.21;64.08;100995.69;5036695;28;19923;-84
2021/12/23 04:14:55;;;;;;;;;;;;;;;-4.33;64.62;101003.47;5028981;28;19912;-84
2021/12/23 04:17:20;;;;;;;;;;;;;;;-4.30;64.50;101005.38;5028128;28;19913;-84
2021/12/23 04:19:47;;;;;;;;;;;;;;;-4.13;64.32;101004.78;5028424;28;20283;-85
2021/12/23 04:22:13;;;;;;;;;;;;;;;-4.18;64.49;101003.59;5028925;28;19931;-85
2021/12/23 04:24:38;;;;;;;;;;;;;;;-4.03;64.94;101001.09;5027906;28;19917;-85
2021/12/23 04:27:04;;;;;;;;;;;;;;;-4.07;64.15;100994.00;5028530;28;19914;-85
2021/12/23 04:29:29;;;;;;;;;;;;;;;-4.11;64.10;101003.19;5039997;28;19983;-85
2021/12/23 04:31:54;;;;;;;;;;;;;;;-4.13;63.96;100997.06;5033535;28;19937;-85
2021/12/23 04:34:20;;;;;;;;;;;;;;;-4.18;64.11;101007.06;5028587;28;20394;-86
2021/12/23 04:36:45;;;;;;;;;;;;;;;-3.98;64.28;101005.78;5027876;28;20432;-84
2021/12/23 04:39:10;;;;;;;;;;;;;;;-4.05;64.46;101005.28;5028913;28;20387;-83
2021/12/23 04:41:38;;;;;;;;;;;;;;;-4.02;63.48;101003.78;5034913;28;19936;-85
2021/12/23 04:44:03;;;;;;;;;;;;;;;-4.17;63.62;100995.97;5028351;28;19943;-85
2021/12/23 04:46:28;;;;;;;;;;;;;;;-3.97;63.66;101009.22;5027403;28;19917;-85
2021/12/23 04:48:54;;;;;;;;;;;;;;;-4.03;63.32;101012.34;5027870;28;19917;-84
2021/12/23 04:51:19;;;;;;;;;;;;;;;-4.08;63.96;101000.81;5036349;28;20002;-84
2021/12/23 04:53:45;;;;;;;;;;;;;;;-4.06;63.66;101000.91;5027335;28;19927;-86
2021/12/23 04:56:12;;;;;;;;;;;;;;;-4.11;63.61;101005.75;5026857;28;19991;-85
2021/12/23 04:58:38;;;;;;;;;;;;;;;-4.15;63.16;101009.84;5038736;28;20301;-85
2021/12/23 05:01:06;;;;;;;;;;;;;;;-4.32;61.99;100998.44;5038456;28;19921;-85
2021/12/23 05:03:31;;;;;;;;;;;;;;;-4.42;62.65;101001.19;5037123;28;20385;-85
2021/12/23 05:05:56;;;;;;;;;;;;;;;-4.48;63.49;101003.34;5037251;28;19916;-84
2021/12/23 05:08:22;;;;;;;;;;;;;;;-4.38;63.86;100992.00;5047271;28;19920;-86
2021/12/23 05:10:47;;;;;;;;;;;;;;;-4.54;64.62;100995.22;5036200;28;19917;-87
2021/12/23 05:13:13;;;;;;;;;;;;;;;-4.61;64.66;101004.22;5035701;28;19920;-87
2021/12/23 05:15:39;;;;;;;;;;;;;;;-4.37;64.11;101004.06;5048035;28;19913;-85
2021/12/23 05:18:05;;;;;;;;;;;;;;;-4.26;63.64;100992.78;5047854;28;19917;-86
2021/12/23 05:20:30;;;;;;;;;;;;;;;-4.42;64.00;100993.44;5037682;28;19916;-89
2021/12/23 05:22:56;;;;;;;;;;;;;;;-4.25;63.59;100985.94;5037606;28;19932;-82
2021/12/23 05:25:21;;;;;;;;;;;;;;;-4.40;64.18;100994.47;5044812;28;20334;-83
2021/12/23 05:27:47;;;;;;;;;;;;;;;-4.32;64.01;100998.44;5045778;28;19960;-83
2021/12/23 05:30:14;;;;;;;;;;;;;;;-4.26;63.99;100995.38;5045650;28;19924;-82
2021/12/23 05:32:41;;;;;;;;;;;;;;;-4.27;63.42;101001.31;5035936;28;19936;-82
2021/12/23 05:35:07;;;;;;;;;;;;;;;-4.48;63.80;100997.31;5027639;28;19943;-82
2021/12/23 05:37:32;;;;;;;;;;;;;;;-4.46;63.69;101000.88;5027280;28;19921;-82
2021/12/23 05:39:57;;;;;;;;;;;;;;;-4.46;63.86;100999.22;5027626;28;19921;-82
2021/12/23 05:42:23;;;;;;;;;;;;;;;-4.58;63.97;100999.28;5034985;28;19974;-82
2021/12/23 05:44:48;;;;;;;;;;;;;;;-4.52;63.54;100999.69;5047766;28;19924;-82
2021/12/23 05:47:13;;;;;;;;;;;;;;;-4.59;63.85;101001.75;5047249;28;19913;-82
2021/12/23 05:49:39;;;;;;;;;;;;;;;-4.61;63.91;100999.09;5034630;28;19944;-83
2021/12/23 05:52:04;;;;;;;;;;;;;;;-4.61;64.79;101000.78;5027901;28;19952;-82
2021/12/23 05:54:29;;;;;;;;;;;;;;;-4.50;64.29;101005.81;5042969;28;19923;-82
2021/12/23 05:57:01;;;;;;;;;;;;;;;-4.50;64.23;101010.97;5047016;28;20670;-83
2021/12/23 05:59:27;;;;;;;;;;;;;;;-4.36;64.41;101016.16;5032298;28;19924;-82
2021/12/23 06:01:52;;;;;;;;;;;;;;;-4.39;63.85;101013.38;5032844;28;19920;-82
2021/12/23 06:04:17;;;;;;;;;;;;;;;-4.60;64.01;101013.75;5044176;28;20509;-84
2021/12/23 06:06:43;;;;;;;;;;;;;;;-4.57;63.49;101020.78;5030807;28;19917;-84
2021/12/23 06:09:08;;;;;;;;;;;;;;;-4.44;67.80;101019.94;5027044;28;20357;-83
2021/12/23 06:11:33;;;;;;;;;;;;;;;-4.18;66.93;101017.38;5027959;28;19971;-83
2021/12/23 06:13:59;;;;;;;;;;;;;;;-4.17;65.37;101015.69;5029916;28;20063;-83
2021/12/23 06:16:24;;;;;;;;;;;;;;;-4.14;65.00;101013.28;5030513;28;19924;-83
2021/12/23 06:18:49;;;;;;;;;;;;;;;-4.04;64.79;101015.69;5031513;28;19970;-84
2021/12/23 06:21:15;;;;;;;;;;;;;;;-4.19;65.47;101025.00;5030871;28;19966;-84
2021/12/23 06:23:40;;;;;;;;;;;;;;;-4.09;65.32;101024.81;5031242;28;19913;-84
2021/12/23 06:26:05;;;;;;;;;;;;;;;-4.32;66.28;101031.94;5031046;28;19963;-82
2021/12/23 06:28:31;;;;;;;;;;;;;;;-4.31;66.96;101030.22;5035560;28;19920;-82
2021/12/23 06:30:56;;;;;;;;;;;;;;;-4.05;66.19;101031.94;5045719;28;19936;-83
2021/12/23 06:33:22;;;;;;;;;;;;;;;-3.87;65.73;101037.41;5050667;28;20441;-83
2021/12/23 06:35:47;;;;;;;;;;;;;;;-3.70;66.09;101042.75;5049645;28;19920;-84
2021/12/23 06:38:12;;;;;;;;;;;;;;;-3.49;65.31;101043.22;5049480;28;19917;-85
2021/12/23 06:40:39;;;;;;;;;;;;;;;-3.41;65.88;101047.19;5050397;28;20440;-82
2021/12/23 06:43:04;;;;;;;;;;;;;;;-3.23;64.85;101052.59;5030541;28;19921;-82
2021/12/23 06:45:30;;;;;;;;;;;;;;;-3.00;64.95;101043.69;5029361;28;19921;-83
2021/12/23 06:47:55;;;;;;;;;;;;;;;-2.82;65.52;101043.03;5030085;28;19932;-83
2021/12/23 06:50:22;;;;;;;;;;;;;;;-2.65;65.34;101046.63;5030667;28;19910;-83
2021/12/23 06:52:47;;;;;;;;;;;;;;;-2.46;64.34;101041.72;5030386;28;20020;-84
2021/12/23 06:55:13;;;;;;;;;;;;;;;-2.28;64.08;101043.63;5030332;28;19995;-84
2021/12/23 06:57:39;;;;;;;;;;;;;;;-2.32;64.50;101050.28;5030236;28;19927;-83
2021/12/23 07:00:06;;;;;;;;;;;;;;;-2.08;64.05;101039.63;5030691;28;19913;-82
2021/12/23 07:02:34;;;;;;;;;;;;;;;-1.87;63.46;101043.44;5030371;28;19947;-82
2021/12/23 07:04:59;;;;;;;;;;;;;;;-1.65;63.00;101045.50;5030359;28;19917;-82
2021/12/23 07:07:28;;;;;;;;;;;;;;;-1.63;62.72;101046.47;5030666;28;19928;-84
2021/12/23 07:09:54;;;;;;;;;;;;;;;-1.47;62.35;101042.16;5030137;28;19964;-85
2021/12/23 07:12:20;;;;;;;;;;;;;;;-1.10;62.00;101038.97;5029586;28;19920;-83
2021/12/23 07:14:46;;;;;;;;;;;;;;;-0.95;60.27;101034.59;5029766;28;19959;-82
2021/12/23 07:17:11;;;;;;;;;;;;;;;-0.95;59.14;101032.00;5029828;28;19944;-83
2021/12/23 07:19:36;;;;;;;;;;;;;;;-0.80;57.81;101039.72;5029813;28;19917;-83
2021/12/23 07:22:03;;;;;;;;;;;;;;;-1.03;57.39;101043.69;5029693;28;20448;-83
2021/12/23 07:24:28;;;;;;;;;;;;;;;-1.19;58.08;101044.56;5028997;28;19917;-83
2021/12/23 07:26:53;;;;;;;;;;;;;;;-0.88;57.49;101047.88;5029103;28;19917;-84
2021/12/23 07:29:20;;;;;;;;;;;;;;;-0.68;57.35;101048.94;5028322;28;20330;-84
2021/12/23 07:31:45;;;;;;;;;;;;;;;-1.22;56.58;101054.75;5029494;28;20004;-84
2021/12/23 07:34:10;;;;;;;;;;;;;;;-0.93;57.70;101048.56;5029154;28;20008;-83
2021/12/23 07:36:36;;;;;;;;;;;;;;;-0.62;57.22;101044.97;5029636;28;20009;-84
2021/12/23 07:39:06;;;;;;;;;;;;;;;-0.22;55.48;101047.00;5029565;28;19916;-83
2021/12/23 07:41:32;;;;;;;;;;;;;;;-0.03;54.76;101043.59;5029277;28;19935;-83
2021/12/23 07:46:24;;;;;;;;;;;;;;;-0.14;54.95;101049.06;5029133;28;19923;-84
2021/12/23 07:48:49;;;;;;;;;;;;;;;-0.04;55.02;101047.00;5029601;28;19913;-83
2021/12/23 07:51:14;;;;;;;;;;;;;;;0.12;53.19;101022.69;5029357;28;19924;-85
2021/12/23 07:53:40;;;;;;;;;;;;;;;0.30;51.58;101048.66;5029432;28;20010;-83
2021/12/23 07:56:05;;;;;;;;;;;;;;;0.23;51.66;101046.56;5029608;28;20718;-83
2021/12/23 07:58:31;;;;;;;;;;;;;;;0.32;51.25;101039.22;5029151;28;19928;-83
2021/12/23 08:00:56;;;;;;;;;;;;;;;0.66;51.11;101045.13;5028742;28;20407;-85
2021/12/23 08:03:21;;;;;;;;;;;;;;;0.77;50.79;101043.03;5029434;28;19955;-84
2021/12/23 08:05:47;;;;;;;;;;;;;;;0.88;50.47;101039.22;5028889;28;19960;-84
2021/12/23 08:08:12;;;;;;;;;;;;;;;0.76;51.02;101034.38;5029276;28;19920;-85
2021/12/23 08:10:37;;;;;;;;;;;;;;;0.99;50.82;101034.50;5028604;28;19924;-84
2021/12/23 08:13:03;;;;;;;;;;;;;;;1.13;49.98;101037.72;5028736;28;20421;-84
2021/12/23 08:15:28;;;;;;;;;;;;;;;0.90;50.01;101032.41;5028626;28;20434;-84
2021/12/23 08:17:54;;;;;;;;;;;;;;;0.86;49.45;101035.66;5028756;28;20069;-83
2021/12/23 08:20:19;;;;;;;;;;;;;;;0.81;50.05;101029.38;5028962;28;20003;-83
2021/12/23 08:22:45;;;;;;;;;;;;;;;1.00;49.17;101020.69;5028183;28;19924;-83
2021/12/23 08:25:11;;;;;;;;;;;;;;;1.00;49.66;101023.28;5029192;28;19917;-82
2021/12/23 08:27:36;;;;;;;;;;;;;;;1.12;50.18;101023.84;5028360;28;19917;-83
2021/12/23 08:30:05;;;;;;;;;;;;;;;1.27;50.03;101026.25;5028856;28;19920;-84
2021/12/23 08:32:31;;;;;;;;;;;;;;;1.17;50.79;101024.03;5027588;28;19979;-84
2021/12/23 08:34:56;;;;;;;;;;;;;;;1.13;50.97;101023.03;5028510;28;20748;-84
2021/12/23 08:37:21;;;;;;;;;;;;;;;0.99;50.19;101018.91;5025928;28;19917;-84
2021/12/23 08:39:50;;;;;;;;;;;;;;;0.91;50.96;101022.88;5029023;28;19913;-82
2021/12/23 08:42:16;;;;;;;;;;;;;;;1.12;50.03;101020.38;5027770;28;20402;-83
2021/12/23 08:44:41;;;;;;;;;;;;;;;1.15;49.91;101016.19;5031248;28;19925;-81
2021/12/23 08:47:08;;;;;;;;;;;;;;;1.32;49.93;101011.72;5036732;28;20287;-81
2021/12/23 08:49:33;;;;;;;;;;;;;;;1.36;49.82;101005.84;5039436;28;20440;-80
2021/12/23 08:51:59;;;;;;;;;;;;;;;1.30;49.59;101002.97;5047450;28;19916;-83
2021/12/23 08:54:24;;;;;;;;;;;;;;;1.30;48.81;101000.38;5047657;28;19934;-83
2021/12/23 08:56:50;;;;;;;;;;;;;;;1.16;48.19;100997.19;5047786;28;19921;-82
2021/12/23 08:59:17;;;;;;;;;;;;;;;1.04;48.54;100999.22;5048081;28;19967;-82
2021/12/23 09:01:42;;;;;;;;;;;;;;;1.44;47.76;100998.38;5046966;28;19923;-84
2021/12/23 09:04:08;;;;;;;;;;;;;;;1.42;47.77;100989.59;5047686;28;19917;-82
2021/12/23 09:06:33;;;;;;;;;;;;;;;1.43;47.44;100987.06;5048239;28;20015;-82
2021/12/23 09:09:08;;;;;;;;;;;;;;;1.70;46.14;100983.88;5125988;27;20680;-83
2021/12/23 09:11:33;;;;;;;;;;;;;;;1.86;48.66;100981.88;5125977;27;19924;-84
2021/12/23 09:13:58;;;;;;;;;;;;;;;1.42;49.69;100979.19;5125447;27;19972;-84
2021/12/23 09:16:24;;;;;;;;;;;;;;;1.47;50.35;100982.00;5125568;27;19926;-83
2021/12/23 09:18:49;;;;;;;;;;;;;;;1.23;47.91;100980.13;5125554;27;19941;-84
2021/12/23 09:21:15;;;;;;;;;;;;;;;1.21;47.05;100972.25;5125423;27;20298;-83
2021/12/23 09:23:40;;;;;;;;;;;;;;;0.98;48.36;100968.66;5125086;27;19938;-82
2021/12/23 09:26:10;;;;;;;;;;;;;;;0.55;48.13;100968.44;5125432;27;20290;-83
2021/12/23 09:33:48;;;;;;;;;;;;;;;1.53;47.69;100951.03;5125218;28;20324;-85
2021/12/23 09:36:14;;;;;;;;;;;;;;;1.33;46.49;100947.59;5125710;28;19926;-83
2021/12/23 09:38:39;;;;;;;;;;;;;;;0.93;47.63;100944.19;5125487;27;19915;-83
2021/12/23 09:41:07;;;;;;;;;;;;;;;0.61;48.26;100938.44;5124841;27;19916;-83
2021/12/23 09:43:34;;;;;;;;;;;;;;;0.92;47.62;100934.59;5125228;27;19989;-83
2021/12/23 09:45:59;;;;;;;;;;;;;;;1.21;46.83;100935.00;5124748;27;20351;-83
2021/12/23 09:48:29;;;;;;;;;;;;;;;1.48;47.39;100931.75;5124808;27;19927;-83
2021/12/23 09:50:57;;;;;;;;;;;;;;;1.24;46.58;100922.13;5124254;27;20324;-83
2021/12/23 09:53:24;;;;;;;;;;;;;;;0.86;47.84;100926.53;5125281;27;19962;-83
2021/12/23 09:55:50;;;;;;;;;;;;;;;1.20;47.24;100928.88;5124451;27;19916;-83
2021/12/23 09:58:15;;;;;;;;;;;;;;;1.13;46.84;100924.25;5124417;27;19920;-84
2021/12/23 10:00:45;;;;;;;;;;;;;;;1.19;46.81;100916.72;5124521;27;20680;-85
2021/12/23 10:03:11;;;;;;;;;;;;;;;1.33;46.69;100908.59;5117926;27;19946;-84
2021/12/23 10:05:36;;;;;;;;;;;;;;;1.70;46.56;100907.50;5102283;28;19920;-84
2021/12/23 10:08:04;;;;;;;;;;;;;;;1.66;45.29;100901.31;5103517;28;20497;-85
2021/12/23 10:10:36;;;;;;;;;;;;;;;1.81;44.45;100900.13;5104157;28;19916;-84
2021/12/23 10:38:01;;;;;;;;;;;;;;;2.82;43.67;100857.03;5089900;28;19977;-83
2021/12/23 10:40:28;;;;;;;;;;;;;;;2.66;45.05;100858.22;5091498;28;19916;-84
2021/12/23 10:42:53;;;;;;;;;;;;;;;3.08;45.95;100844.03;5109981;28;20473;-84
2021/12/23 10:45:18;;;;;;;;;;;;;;;3.48;45.38;100839.25;5110184;28;20128;-84
2021/12/23 10:50:14;;;;;;;;;;;;;;;3.24;42.51;100832.38;5109257;28;19976;-83
2021/12/23 10:52:53;;;;;;;;;;;;;;;3.10;40.80;100829.31;5109902;28;20003;-82
2021/12/23 10:58:09;;;;;;;;;;;;;;;2.78;41.25;100829.13;5108911;28;20270;-82
2021/12/23 11:00:36;;;;;;;;;;;;;;;2.84;41.18;100829.34;5110126;28;19923;-82
2021/12/23 11:03:02;;;;;;;;;;;;;;;2.53;41.86;100814.31;5108822;28;19916;-83
2021/12/23 11:05:33;;;;;;;;;;;;;;;2.30;41.43;100822.22;5110244;28;19977;-83
2021/12/23 11:11:02;;;;;;;;;;;;;;;2.67;40.74;100814.81;5106031;28;20336;-84
2021/12/23 11:38:28;;;;;;;;;;;;;;;2.89;42.30;100769.53;5088281;28;19976;-83
2021/12/23 11:40:58;;;;;;;;;;;;;;;2.89;42.76;100766.94;5089146;28;20010;-82
2021/12/23 11:43:29;;;;;;;;;;;;;;;2.91;42.39;100764.38;5121362;27;20291;-84
2021/12/23 11:45:56;;;;;;;;;;;;;;;2.90;42.92;100763.47;5088640;28;19920;-83
2021/12/23 11:48:21;;;;;;;;;;;;;;;2.64;43.78;100766.09;5089149;28;19920;-83
2021/12/23 11:51:07;;;;;;;;;;;;;;;2.96;43.69;100755.84;5088920;28;20057;-82
2021/12/23 11:53:32;;;;;;;;;;;;;;;2.64;43.90;100752.19;5088557;28;19923;-84
2021/12/23 11:55:59;;;;;;;;;;;;;;;2.79;43.11;100755.31;5088770;28;19916;-83
2021/12/23 11:58:25;;;;;;;;;;;;;;;2.81;43.74;100755.34;5088396;28;20397;-83
2021/12/23 12:01:08;;;;;;;;;;;;;;;2.71;43.64;100755.91;5106732;28;20380;-83
2021/12/23 12:03:50;;;;;;;;;;;;;;;2.71;43.71;100753.28;5108503;28;20419;-84
2021/12/23 12:06:16;;;;;;;;;;;;;;;2.48;44.58;100761.19;5108723;28;19926;-84
2021/12/23 12:08:42;;;;;;;;;;;;;;;2.72;44.11;100749.81;5108060;28;19919;-83
2021/12/23 12:11:18;;;;;;;;;;;;;;;2.85;43.82;100757.22;5108111;28;19937;-82
2021/12/23 12:13:44;;;;;;;;;;;;;;;2.73;44.24;100762.03;5107824;28;19926;-83
2021/12/23 12:16:25;;;;;;;;;;;;;;;2.93;43.87;100755.75;5108406;28;19923;-83
2021/12/23 12:18:50;;;;;;;;;;;;;;;2.81;44.16;100748.44;5108564;28;19919;-83
2021/12/23 12:21:20;;;;;;;;;;;;;;;2.94;44.28;100746.25;5108110;28;19926;-82
2021/12/23 12:23:46;;;;;;;;;;;;;;;2.97;43.99;100744.59;5108779;28;19919;-84
2021/12/23 12:26:24;;;;;;;;;;;;;;;3.10;43.81;100738.06;5107921;28;19923;-84
2021/12/23 12:28:50;;;;;;;;;;;;;;;2.82;44.19;100734.56;5106328;28;20007;-84
2021/12/23 12:31:19;;;;;;;;;;;;;;;3.04;44.29;100738.75;5108272;28;20039;-85
2021/12/23 12:33:53;;;;;;;;;;;;;;;3.14;44.02;100720.81;5106381;28;20590;-84
2021/12/23 12:36:19;;;;;;;;;;;;;;;3.13;43.91;100719.03;5108086;28;19924;-85
2021/12/23 12:38:48;;;;;;;;;;;;;;;3.35;43.90;100711.03;5107651;28;19989;-85
2021/12/23 12:41:19;;;;;;;;;;;;;;;3.05;44.08;100708.34;5107258;28;19930;-84
2021/12/23 12:43:47;;;;;;;;;;;;;;;3.34;43.89;100711.88;5107137;28;19926;-85
2021/12/23 12:46:14;;;;;;;;;;;;;;;3.40;43.21;100716.41;5107690;28;20360;-83
2021/12/23 12:48:55;;;;;;;;;;;;;;;3.22;43.44;100712.38;5108005;28;19984;-84
2021/12/23 12:51:21;;;;;;;;;;;;;;;3.08;44.21;100712.78;5088966;28;19938;-84
2021/12/23 12:53:55;;;;;;;;;;;;;;;3.25;43.74;100718.53;5087489;28;19920;-84
2021/12/23 12:56:25;;;;;;;;;;;;;;;3.43;43.21;100712.97;5087554;28;19920;-84
2021/12/23 13:01:54;;;;;;;;;;;;;;;2.84;44.54;100709.44;5088425;28;19976;-83
2021/12/23 13:04:23;;;;;;;;;;;;;;;3.05;44.62;100705.75;5102331;28;20015;-84
2021/12/23 13:06:48;;;;;;;;;;;;;;;2.90;43.69;100715.69;5107262;28;20492;-86
2021/12/23 13:09:15;;;;;;;;;;;;;;;2.82;43.53;100713.69;5107344;28;19920;-84
2021/12/23 13:11:42;;;;;;;;;;;;;;;2.83;43.50;100714.59;5107089;28;19968;-83
2021/12/23 13:14:14;;;;;;;;;;;;;;;3.00;43.30;100703.00;5107128;28;19979;-84
2021/12/23 13:16:51;;;;;;;;;;;;;;;3.02;43.63;100705.66;5106100;28;19924;-85
2021/12/23 13:19:17;;;;;;;;;;;;;;;3.05;43.80;100710.97;5106121;28;20730;-83
2021/12/23 13:21:44;;;;;;;;;;;;;;;2.90;44.21;100705.25;5108249;28;20015;-85
2021/12/23 13:24:13;;;;;;;;;;;;;;;3.11;43.72;100705.06;5107592;28;19923;-83
2021/12/23 13:26:38;;;;;;;;;;;;;;;3.21;44.58;100708.00;5107819;28;19966;-85
2021/12/23 13:29:06;;;;;;;;;;;;;;;3.16;43.98;100699.13;5106771;28;19966;-86
2021/12/23 13:31:32;;;;;;;;;;;;;;;2.96;44.34;100706.31;5107560;28;19977;-84
2021/12/23 13:33:59;;;;;;;;;;;;;;;2.93;44.35;100698.41;5107249;28;20343;-83
2021/12/23 13:36:25;;;;;;;;;;;;;;;2.93;43.74;100692.31;5107596;28;19950;-84
2021/12/23 13:38:52;;;;;;;;;;;;;;;3.35;43.43;100699.69;5107397;28;19988;-83
2021/12/23 13:41:27;;;;;;;;;;;;;;;3.33;42.99;100688.34;5107543;28;19928;-85
2021/12/23 13:43:57;;;;;;;;;;;;;;;3.15;44.25;100693.88;5107280;28;19924;-83
2021/12/23 13:46:24;;;;;;;;;;;;;;;3.03;44.68;100691.78;5107454;28;20027;-84
2021/12/23 13:48:50;;;;;;;;;;;;;;;3.11;43.72;100695.50;5107465;28;19916;-85
2021/12/23 13:51:17;;;;;;;;;;;;;;;3.13;44.16;100693.81;5107168;28;19920;-84
2021/12/23 13:53:42;;;;;;;;;;;;;;;3.13;43.88;100686.00;5107264;28;19915;-85